Time;durP1;ratioP1;P1;durP2;ratioP2;P2;SDS_P1;SDS_P2;PMS_P1;PMS_P2;Temp;Humidity;BMP_temperature;BMP_pressure;BME280_temperature;BME280_humidity;BME280_pressure;Samples;Min_cycle;Max_cycle;Signal;HPM_P1;HPM_P2
2024/01/08 00:01:48;;;;;;;;;;;18.90;48.70;;;;;;5055564;28;19924;-61
2024/01/08 00:04:13;;;;;;;;;;;18.90;48.70;;;;;;5055851;28;19925;-61
2024/01/08 00:06:39;;;;;;;;;;;18.90;48.70;;;;;;5036881;28;19931;-61
2024/01/08 00:09:04;;;;;;;;;;;18.90;48.70;;;;;;5056022;28;19932;-61
2024/01/08 00:11:30;;;;;;;;;;;18.80;48.50;;;;;;5056064;28;20287;-61
2024/01/08 00:13:55;;;;;;;;;;;18.90;48.70;;;;;;5054523;28;20455;-61
2024/01/08 00:16:21;;;;;;;;;;;18.80;48.60;;;;;;5038260;28;19972;-61
2024/01/08 00:18:46;;;;;;;;;;;18.80;48.60;;;;;;5036085;28;20368;-61
2024/01/08 00:21:11;;;;;;;;;;;18.80;48.50;;;;;;5013850;28;19983;-61
2024/01/08 00:23:37;;;;;;;;;;;18.80;48.50;;;;;;5015610;28;20401;-61
2024/01/08 00:26:03;;;;;;;;;;;18.80;48.50;;;;;;5014623;28;19926;-61
2024/01/08 00:28:28;;;;;;;;;;;18.80;48.50;;;;;;5034863;28;19929;-61
2024/01/08 00:30:53;;;;;;;;;;;18.80;48.40;;;;;;5037401;28;19931;-61
2024/01/08 00:33:19;;;;;;;;;;;18.80;48.60;;;;;;5037940;28;19925;-61
2024/01/08 00:35:44;;;;;;;;;;;18.80;48.60;;;;;;5053744;28;20273;-61
2024/01/08 00:38:10;;;;;;;;;;;18.80;48.60;;;;;;5037327;28;20020;-61
2024/01/08 00:40:36;;;;;;;;;;;18.80;48.50;;;;;;5055373;28;19986;-61
2024/01/08 00:43:01;;;;;;;;;;;18.80;48.50;;;;;;5054432;28;19972;-61
2024/01/08 00:45:27;;;;;;;;;;;18.80;48.50;;;;;;5037456;28;20019;-61
2024/01/08 00:47:52;;;;;;;;;;;18.80;48.50;;;;;;5055044;28;19931;-61
2024/01/08 00:50:18;;;;;;;;;;;18.80;48.40;;;;;;5054328;28;19940;-61
2024/01/08 00:52:43;;;;;;;;;;;18.80;48.40;;;;;;5037452;28;19974;-61
2024/01/08 00:55:11;;;;;;;;;;;18.80;48.30;;;;;;5037128;28;19932;-61
2024/01/08 00:57:40;;;;;;;;;;;18.80;48.50;;;;;;5036760;28;19925;-61
2024/01/08 01:00:06;;;;;;;;;;;18.80;48.40;;;;;;5054829;28;19932;-61
2024/01/08 01:02:31;;;;;;;;;;;18.80;48.30;;;;;;5055296;28;19925;-61
2024/01/08 01:04:57;;;;;;;;;;;18.80;48.10;;;;;;5053866;28;19978;-61
2024/01/08 01:07:23;;;;;;;;;;;18.80;48.30;;;;;;5037276;28;19994;-61
2024/01/08 01:09:48;;;;;;;;;;;18.80;48.10;;;;;;5037268;28;20014;-61
2024/01/08 01:12:14;;;;;;;;;;;18.80;48.30;;;;;;5036019;28;20391;-61
2024/01/08 01:14:39;;;;;;;;;;;18.80;48.30;;;;;;5055184;28;19947;-61
2024/01/08 01:17:05;;;;;;;;;;;18.80;48.30;;;;;;5035899;28;19932;-62
2024/01/08 01:19:30;;;;;;;;;;;18.80;48.30;;;;;;5036669;28;19996;-61
2024/01/08 01:21:56;;;;;;;;;;;18.80;48.30;;;;;;5054180;28;19931;-62
2024/01/08 01:24:21;;;;;;;;;;;18.80;48.30;;;;;;5035964;28;20017;-61
2024/01/08 01:26:47;;;;;;;;;;;18.80;48.30;;;;;;5054966;28;19929;-61
2024/01/08 01:29:12;;;;;;;;;;;18.80;48.30;;;;;;5036503;28;19921;-61
2024/01/08 01:31:38;;;;;;;;;;;18.80;48.30;;;;;;5053720;28;19951;-61
2024/01/08 01:34:04;;;;;;;;;;;18.80;48.30;;;;;;5036361;28;19925;-61
2024/01/08 01:36:34;;;;;;;;;;;18.80;48.30;;;;;;5036399;28;19928;-61
2024/01/08 01:39:01;;;;;;;;;;;18.80;48.30;;;;;;5053514;28;19925;-61
2024/01/08 01:41:26;;;;;;;;;;;18.80;48.30;;;;;;5054345;28;19924;-61
2024/01/08 01:43:52;;;;;;;;;;;18.80;48.30;;;;;;5036137;28;19925;-61
2024/01/08 01:46:21;;;;;;;;;;;18.80;48.20;;;;;;5035527;28;20086;-61
2024/01/08 01:48:46;;;;;;;;;;;18.90;48.30;;;;;;5019343;28;19925;-61
2024/01/08 01:51:12;;;;;;;;;;;18.80;48.30;;;;;;5053810;28;19931;-61
2024/01/08 01:53:38;;;;;;;;;;;18.90;48.30;;;;;;5035530;28;19963;-61
2024/01/08 01:56:03;;;;;;;;;;;18.90;48.30;;;;;;5019392;28;20043;-62
2024/01/08 01:58:29;;;;;;;;;;;18.90;48.30;;;;;;5036289;28;19925;-61
2024/01/08 02:00:55;;;;;;;;;;;18.90;48.30;;;;;;5053321;28;19933;-61
2024/01/08 02:03:20;;;;;;;;;;;18.90;48.30;;;;;;5054072;28;20261;-61
2024/01/08 02:05:46;;;;;;;;;;;18.90;48.20;;;;;;5019472;28;19932;-61
2024/01/08 02:08:11;;;;;;;;;;;18.90;48.30;;;;;;5035092;28;19928;-61
2024/01/08 02:10:40;;;;;;;;;;;18.90;48.10;;;;;;5036007;28;19932;-62
2024/01/08 02:13:05;;;;;;;;;;;18.90;48.10;;;;;;5053291;28;20291;-61
2024/01/08 02:15:31;;;;;;;;;;;18.90;48.20;;;;;;5034940;28;19928;-61
2024/01/08 02:17:56;;;;;;;;;;;18.90;48.10;;;;;;5035443;28;19974;-61
2024/01/08 02:20:22;;;;;;;;;;;18.90;48.20;;;;;;5052773;28;19932;-62
2024/01/08 02:22:47;;;;;;;;;;;18.90;48.10;;;;;;5017023;28;19932;-62
2024/01/08 02:25:13;;;;;;;;;;;18.90;48.10;;;;;;5013650;28;19926;-61
2024/01/08 02:27:38;;;;;;;;;;;18.90;48.00;;;;;;5022814;28;19936;-61
2024/01/08 02:30:04;;;;;;;;;;;18.90;48.00;;;;;;5013626;28;19932;-61
2024/01/08 02:32:30;;;;;;;;;;;18.90;48.10;;;;;;5031717;28;20004;-62
2024/01/08 02:34:55;;;;;;;;;;;18.90;48.10;;;;;;5032462;28;20016;-61
2024/01/08 02:37:21;;;;;;;;;;;18.90;48.00;;;;;;5015626;28;20396;-61
2024/01/08 02:39:46;;;;;;;;;;;18.90;48.10;;;;;;5015952;28;20019;-61
2024/01/08 02:42:13;;;;;;;;;;;18.90;47.90;;;;;;5011375;28;20400;-61
2024/01/08 02:44:40;;;;;;;;;;;18.90;48.00;;;;;;5013493;28;19971;-61
2024/01/08 02:47:05;;;;;;;;;;;19.00;48.00;;;;;;5012601;28;19925;-62
2024/01/08 02:49:31;;;;;;;;;;;18.90;47.90;;;;;;5012575;28;20369;-62
2024/01/08 02:51:56;;;;;;;;;;;18.90;47.90;;;;;;5013054;28;19925;-62
2024/01/08 02:54:21;;;;;;;;;;;18.90;47.70;;;;;;5013457;28;20405;-61
2024/01/08 02:56:47;;;;;;;;;;;18.90;47.70;;;;;;5012679;28;19933;-61
2024/01/08 02:59:12;;;;;;;;;;;18.90;47.80;;;;;;5013059;28;20290;-61
2024/01/08 03:01:38;;;;;;;;;;;18.90;47.80;;;;;;5025245;28;19929;-61
2024/01/08 03:04:04;;;;;;;;;;;18.90;47.70;;;;;;5014312;28;19992;-62
2024/01/08 03:06:29;;;;;;;;;;;18.90;47.70;;;;;;5032325;28;19925;-61
2024/01/08 03:08:55;;;;;;;;;;;18.90;47.70;;;;;;5032481;28;20384;-62
2024/01/08 03:11:21;;;;;;;;;;;18.90;47.80;;;;;;5039045;28;19924;-61
2024/01/08 03:13:46;;;;;;;;;;;18.90;47.70;;;;;;5035437;28;19932;-61
2024/01/08 03:16:12;;;;;;;;;;;18.90;47.90;;;;;;5036753;28;20023;-61
2024/01/08 03:18:37;;;;;;;;;;;18.90;47.80;;;;;;5014602;28;20339;-62
2024/01/08 03:21:03;;;;;;;;;;;18.90;47.70;;;;;;5015268;28;19925;-62
2024/01/08 03:23:28;;;;;;;;;;;18.90;47.70;;;;;;5036344;28;19950;-62
2024/01/08 03:25:54;;;;;;;;;;;18.90;47.70;;;;;;5051464;28;19925;-61
2024/01/08 03:28:19;;;;;;;;;;;18.90;47.60;;;;;;5053114;28;19979;-61
2024/01/08 03:30:45;;;;;;;;;;;18.90;47.70;;;;;;5052031;28;20299;-61
2024/01/08 03:33:10;;;;;;;;;;;18.90;47.80;;;;;;5051764;28;20279;-61
2024/01/08 03:35:36;;;;;;;;;;;18.90;47.70;;;;;;5034682;28;19964;-61
2024/01/08 03:38:01;;;;;;;;;;;18.90;47.70;;;;;;5033853;28;19924;-61
2024/01/08 03:40:27;;;;;;;;;;;18.90;47.60;;;;;;5052044;28;19947;-61
2024/01/08 03:42:53;;;;;;;;;;;18.90;47.60;;;;;;5052492;28;19970;-61
2024/01/08 03:45:18;;;;;;;;;;;18.90;47.70;;;;;;5034173;28;20344;-61
2024/01/08 03:47:44;;;;;;;;;;;19.00;47.70;;;;;;5052687;28;20399;-61
2024/01/08 03:50:10;;;;;;;;;;;19.00;47.70;;;;;;5051749;28;19925;-61
2024/01/08 03:52:35;;;;;;;;;;;19.00;47.70;;;;;;5051712;28;19924;-61
2024/01/08 03:55:01;;;;;;;;;;;19.00;47.70;;;;;;5052305;28;20020;-62
2024/01/08 03:57:26;;;;;;;;;;;19.00;47.70;;;;;;5052314;28;19929;-61
2024/01/08 03:59:52;;;;;;;;;;;19.00;47.70;;;;;;5053202;28;19924;-61
2024/01/08 04:02:17;;;;;;;;;;;19.00;47.70;;;;;;5056375;28;20360;-61
2024/01/08 04:04:42;;;;;;;;;;;19.00;47.60;;;;;;5056250;28;20118;-62
2024/01/08 04:07:09;;;;;;;;;;;19.00;47.60;;;;;;5054999;28;20332;-61
2024/01/08 04:09:34;;;;;;;;;;;19.00;47.70;;;;;;5056139;28;20295;-62
2024/01/08 04:12:00;;;;;;;;;;;19.00;47.60;;;;;;5056027;28;19925;-61
2024/01/08 04:14:25;;;;;;;;;;;19.00;47.60;;;;;;5037633;28;19920;-61
2024/01/08 04:16:51;;;;;;;;;;;19.00;47.60;;;;;;5038509;28;19932;-61
2024/01/08 04:19:16;;;;;;;;;;;19.00;47.60;;;;;;5056072;28;20388;-61
2024/01/08 04:21:42;;;;;;;;;;;19.00;47.60;;;;;;5037140;28;19921;-61
2024/01/08 04:24:07;;;;;;;;;;;19.10;47.60;;;;;;5037258;28;20377;-61
2024/01/08 04:26:33;;;;;;;;;;;19.10;47.70;;;;;;5055818;28;20015;-61
2024/01/08 04:28:58;;;;;;;;;;;19.10;47.60;;;;;;5016016;28;20393;-61
2024/01/08 04:31:24;;;;;;;;;;;19.10;47.60;;;;;;4998314;28;19933;-61
2024/01/08 04:33:49;;;;;;;;;;;19.10;48.30;;;;;;5016071;28;20015;-61
2024/01/08 04:36:15;;;;;;;;;;;19.10;47.60;;;;;;5014814;28;19976;-61
2024/01/08 04:38:40;;;;;;;;;;;19.10;47.60;;;;;;5003807;28;20072;-61
2024/01/08 04:41:06;;;;;;;;;;;19.10;47.60;;;;;;5033983;28;19984;-61
2024/01/08 04:43:32;;;;;;;;;;;19.10;47.50;;;;;;5035364;28;19926;-61
2024/01/08 04:45:57;;;;;;;;;;;19.20;47.60;;;;;;5023489;28;19928;-61
2024/01/08 04:48:23;;;;;;;;;;;19.20;47.50;;;;;;5034835;28;20048;-62
2024/01/08 04:50:48;;;;;;;;;;;19.20;47.50;;;;;;5035022;28;19929;-61
2024/01/08 04:53:14;;;;;;;;;;;19.20;47.60;;;;;;5034986;28;19925;-61
2024/01/08 04:55:39;;;;;;;;;;;19.20;47.50;;;;;;5034558;28;20015;-61
2024/01/08 04:58:08;;;;;;;;;;;19.20;47.50;;;;;;5017194;28;19925;-61
2024/01/08 05:00:33;;;;;;;;;;;19.20;47.50;;;;;;5030509;28;19928;-61
2024/01/08 05:02:59;;;;;;;;;;;19.20;47.40;;;;;;5009954;28;19925;-61
2024/01/08 05:05:24;;;;;;;;;;;19.20;47.40;;;;;;5034117;28;19925;-61
2024/01/08 05:07:50;;;;;;;;;;;19.20;47.40;;;;;;5034083;28;20015;-61
2024/01/08 05:10:15;;;;;;;;;;;19.20;47.40;;;;;;5015508;28;19925;-61
2024/01/08 05:12:41;;;;;;;;;;;19.20;47.40;;;;;;5035162;28;19980;-61
2024/01/08 05:15:06;;;;;;;;;;;19.20;47.30;;;;;;5034424;28;19937;-61
2024/01/08 05:17:32;;;;;;;;;;;19.20;47.30;;;;;;5016378;28;19935;-61
2024/01/08 05:19:57;;;;;;;;;;;19.20;47.30;;;;;;5042623;28;19931;-61
2024/01/08 05:22:23;;;;;;;;;;;19.30;47.30;;;;;;5036646;28;19971;-61
2024/01/08 05:24:48;;;;;;;;;;;19.30;47.30;;;;;;5053808;28;19972;-61
2024/01/08 05:27:14;;;;;;;;;;;19.30;47.30;;;;;;5036472;28;19936;-61
2024/01/08 05:29:39;;;;;;;;;;;19.30;47.30;;;;;;5054546;28;19925;-61
2024/01/08 05:32:05;;;;;;;;;;;19.30;47.30;;;;;;5053473;28;19969;-61
2024/01/08 05:34:31;;;;;;;;;;;19.30;47.30;;;;;;5036646;28;19925;-61
2024/01/08 05:36:57;;;;;;;;;;;19.30;47.30;;;;;;5036573;28;20013;-61
2024/01/08 05:39:22;;;;;;;;;;;19.30;47.20;;;;;;5053521;28;20494;-61
2024/01/08 05:41:48;;;;;;;;;;;19.30;47.20;;;;;;5054169;28;19925;-61
2024/01/08 05:44:13;;;;;;;;;;;19.30;47.20;;;;;;5053007;28;19964;-61
2024/01/08 05:46:42;;;;;;;;;;;19.30;47.20;;;;;;5053755;28;19936;-61
2024/01/08 05:49:07;;;;;;;;;;;19.30;47.10;;;;;;5053747;28;19925;-61
2024/01/08 05:51:33;;;;;;;;;;;19.30;47.20;;;;;;5035493;28;19932;-61
2024/01/08 05:53:58;;;;;;;;;;;19.30;47.30;;;;;;5035631;28;19928;-61
2024/01/08 05:56:24;;;;;;;;;;;19.30;47.10;;;;;;5037311;28;19948;-61
2024/01/08 05:58:49;;;;;;;;;;;19.40;47.20;;;;;;5023380;28;19974;-61
2024/01/08 06:01:15;;;;;;;;;;;19.40;47.20;;;;;;5016506;28;19925;-61
2024/01/08 06:03:40;;;;;;;;;;;19.40;47.20;;;;;;5035675;28;19931;-61
2024/01/08 06:06:06;;;;;;;;;;;19.40;47.10;;;;;;5052750;28;20280;-61
2024/01/08 06:08:31;;;;;;;;;;;19.40;47.20;;;;;;5053904;28;19925;-62
2024/01/08 06:10:57;;;;;;;;;;;19.40;47.10;;;;;;5053693;28;20291;-61
2024/01/08 06:13:22;;;;;;;;;;;19.40;47.10;;;;;;5035317;28;20372;-61
2024/01/08 06:15:48;;;;;;;;;;;19.40;47.10;;;;;;5053687;28;19924;-61
2024/01/08 06:18:14;;;;;;;;;;;19.40;47.00;;;;;;5053447;28;20285;-61
2024/01/08 06:20:39;;;;;;;;;;;19.40;47.00;;;;;;5034899;28;19983;-61
2024/01/08 06:23:05;;;;;;;;;;;19.40;47.00;;;;;;5035228;28;19972;-61
2024/01/08 06:25:30;;;;;;;;;;;19.40;47.10;;;;;;5053535;28;20066;-61
2024/01/08 06:27:56;;;;;;;;;;;19.40;47.00;;;;;;5051608;28;20008;-61
2024/01/08 06:30:21;;;;;;;;;;;19.40;47.00;;;;;;5053157;28;20105;-61
2024/01/08 06:32:47;;;;;;;;;;;19.40;47.10;;;;;;5013108;28;19925;-61
2024/01/08 06:35:12;;;;;;;;;;;19.40;47.00;;;;;;4995164;28;19933;-61
2024/01/08 06:37:37;;;;;;;;;;;19.40;46.90;;;;;;4996162;28;19980;-62
2024/01/08 06:40:03;;;;;;;;;;;19.50;47.00;;;;;;5013172;28;19969;-59
2024/01/08 06:42:29;;;;;;;;;;;19.50;47.00;;;;;;4995371;28;19944;-59
2024/01/08 06:44:54;;;;;;;;;;;19.40;47.10;;;;;;5013391;28;20323;-59
2024/01/08 06:47:20;;;;;;;;;;;19.50;47.20;;;;;;4996081;28;19933;-60
2024/01/08 06:49:45;;;;;;;;;;;19.50;47.20;;;;;;5016579;28;19933;-60
2024/01/08 06:52:11;;;;;;;;;;;19.50;47.20;;;;;;5009781;28;20265;-59
2024/01/08 06:54:38;;;;;;;;;;;19.50;47.30;;;;;;5014769;28;20390;-59
2024/01/08 06:57:03;;;;;;;;;;;19.40;47.20;;;;;;5032953;28;19920;-59
2024/01/08 06:59:29;;;;;;;;;;;19.50;47.40;;;;;;5033438;28;20261;-59
2024/01/08 07:01:54;;;;;;;;;;;19.50;47.40;;;;;;5032466;28;19926;-59
2024/01/08 07:04:20;;;;;;;;;;;19.50;47.40;;;;;;5033000;28;19933;-59
2024/01/08 07:06:45;;;;;;;;;;;19.50;47.40;;;;;;5022442;28;19930;-59
2024/01/08 07:09:11;;;;;;;;;;;19.50;47.20;;;;;;5011697;28;19929;-59
2024/01/08 07:11:36;;;;;;;;;;;19.50;47.10;;;;;;5013278;28;19925;-59
2024/01/08 07:14:02;;;;;;;;;;;19.50;47.20;;;;;;5012748;28;20376;-59
2024/01/08 07:16:28;;;;;;;;;;;19.50;47.20;;;;;;5012884;28;19926;-59
2024/01/08 07:18:54;;;;;;;;;;;19.50;47.20;;;;;;5013375;28;19948;-59
2024/01/08 07:21:20;;;;;;;;;;;19.50;47.10;;;;;;5013213;28;20388;-59
2024/01/08 07:23:47;;;;;;;;;;;19.50;47.20;;;;;;5012382;28;19979;-59
2024/01/08 07:26:14;;;;;;;;;;;19.50;47.20;;;;;;5013102;28;20048;-59
2024/01/08 07:28:40;;;;;;;;;;;19.50;47.20;;;;;;5013220;28;20371;-59
2024/01/08 07:31:05;;;;;;;;;;;19.50;47.20;;;;;;5012095;28;19925;-59
2024/01/08 07:33:31;;;;;;;;;;;19.50;47.20;;;;;;4995857;28;19921;-58
2024/01/08 07:35:56;;;;;;;;;;;19.50;47.20;;;;;;5016788;28;19932;-59
2024/01/08 07:38:22;;;;;;;;;;;19.50;47.20;;;;;;4998763;28;19925;-59
2024/01/08 07:40:47;;;;;;;;;;;19.50;47.30;;;;;;5025379;28;19944;-58
2024/01/08 07:43:13;;;;;;;;;;;19.50;47.30;;;;;;5034720;28;20287;-58
2024/01/08 07:45:39;;;;;;;;;;;19.60;47.50;;;;;;5035704;28;19933;-59
2024/01/08 07:48:05;;;;;;;;;;;19.60;47.60;;;;;;5035696;28;19975;-59
2024/01/08 07:50:30;;;;;;;;;;;19.60;47.70;;;;;;5032710;28;19936;-60
2024/01/08 07:52:56;;;;;;;;;;;19.60;47.60;;;;;;5017774;28;20000;-59
2024/01/08 07:55:21;;;;;;;;;;;19.60;47.60;;;;;;5036209;28;19925;-59
2024/01/08 07:57:47;;;;;;;;;;;19.60;47.70;;;;;;5036276;28;19925;-59
2024/01/08 08:00:13;;;;;;;;;;;19.60;47.70;;;;;;5035329;28;19936;-59
2024/01/08 08:02:41;;;;;;;;;;;19.60;47.80;;;;;;5035069;28;20372;-59
2024/01/08 08:05:07;;;;;;;;;;;19.60;47.70;;;;;;5034882;28;19928;-59
2024/01/08 08:07:32;;;;;;;;;;;19.60;47.70;;;;;;5036246;28;19994;-60
2024/01/08 08:09:58;;;;;;;;;;;19.70;47.70;;;;;;5017178;28;19971;-60
2024/01/08 08:12:23;;;;;;;;;;;19.60;47.70;;;;;;5017499;28;19929;-60
2024/01/08 08:14:49;;;;;;;;;;;19.70;47.80;;;;;;5036093;28;19929;-59
2024/01/08 08:17:15;;;;;;;;;;;19.70;47.80;;;;;;5035561;28;20352;-59
2024/01/08 08:19:41;;;;;;;;;;;19.70;47.70;;;;;;5035455;28;19925;-59
2024/01/08 08:22:06;;;;;;;;;;;19.70;47.70;;;;;;5034730;28;20300;-59
2024/01/08 08:24:32;;;;;;;;;;;19.70;47.70;;;;;;5035270;28;19932;-59
2024/01/08 08:26:58;;;;;;;;;;;19.70;47.70;;;;;;5034776;28;19925;-60
2024/01/08 08:29:23;;;;;;;;;;;19.70;47.70;;;;;;5036121;28;19925;-59
2024/01/08 08:31:50;;;;;;;;;;;19.70;47.70;;;;;;5034991;28;19952;-60
2024/01/08 08:34:15;;;;;;;;;;;19.70;47.70;;;;;;5034433;28;19929;-60
2024/01/08 08:36:41;;;;;;;;;;;19.70;47.70;;;;;;5035504;28;19952;-60
2024/01/08 08:39:07;;;;;;;;;;;19.70;47.60;;;;;;5035475;28;19931;-60
2024/01/08 08:41:32;;;;;;;;;;;19.70;47.60;;;;;;5034417;28;20012;-60
2024/01/08 08:43:58;;;;;;;;;;;19.70;47.60;;;;;;5034682;28;20430;-61
2024/01/08 08:46:23;;;;;;;;;;;19.70;47.60;;;;;;5033759;28;20282;-61
2024/01/08 08:48:49;;;;;;;;;;;19.70;47.50;;;;;;5034894;28;20012;-61
2024/01/08 08:51:15;;;;;;;;;;;19.70;47.40;;;;;;5034317;28;19925;-61
2024/01/08 08:53:40;;;;;;;;;;;19.70;47.30;;;;;;5034728;28;19925;-60
2024/01/08 08:56:06;;;;;;;;;;;19.70;47.20;;;;;;5033969;28;20016;-61
2024/01/08 08:58:31;;;;;;;;;;;19.70;47.10;;;;;;5034544;28;20384;-61
2024/01/08 09:00:57;;;;;;;;;;;19.70;47.00;;;;;;5035202;28;20395;-60
2024/01/08 09:03:22;;;;;;;;;;;19.70;47.10;;;;;;5034637;28;20024;-60
2024/01/08 09:05:48;;;;;;;;;;;19.70;47.10;;;;;;5035437;28;20376;-60
2024/01/08 09:08:13;;;;;;;;;;;19.70;47.10;;;;;;5034361;28;19925;-60
2024/01/08 09:10:39;;;;;;;;;;;19.70;47.00;;;;;;5035494;28;19937;-61
2024/01/08 09:13:04;;;;;;;;;;;19.70;47.00;;;;;;5035065;28;19925;-60
2024/01/08 09:15:30;;;;;;;;;;;19.70;47.00;;;;;;5016930;28;20661;-61
2024/01/08 09:17:55;;;;;;;;;;;19.70;47.00;;;;;;5034707;28;19925;-61
2024/01/08 09:20:21;;;;;;;;;;;19.70;46.90;;;;;;5034952;28;19929;-61
2024/01/08 09:22:47;;;;;;;;;;;19.70;46.90;;;;;;5034013;28;19987;-61
2024/01/08 09:25:12;;;;;;;;;;;19.70;46.90;;;;;;5016826;28;19925;-61
2024/01/08 09:27:39;;;;;;;;;;;19.70;46.90;;;;;;5017205;28;19956;-61
2024/01/08 09:30:05;;;;;;;;;;;19.70;46.80;;;;;;5033982;28;19925;-61
2024/01/08 09:32:31;;;;;;;;;;;19.70;46.90;;;;;;5034875;28;19925;-61
2024/01/08 09:34:56;;;;;;;;;;;19.70;46.80;;;;;;5034696;28;19931;-60
2024/01/08 09:37:22;;;;;;;;;;;19.80;46.80;;;;;;5033975;28;20007;-60
2024/01/08 09:39:47;;;;;;;;;;;19.80;46.80;;;;;;5034632;28;20330;-61
2024/01/08 09:42:13;;;;;;;;;;;19.80;46.70;;;;;;5034578;28;19932;-60
2024/01/08 09:44:40;;;;;;;;;;;19.80;46.80;;;;;;5033678;28;20380;-60
2024/01/08 09:47:05;;;;;;;;;;;19.80;46.70;;;;;;5016863;28;19976;-61
2024/01/08 09:49:32;;;;;;;;;;;19.80;46.70;;;;;;5034394;28;19967;-61
2024/01/08 09:51:58;;;;;;;;;;;19.70;46.60;;;;;;5033190;28;19972;-61
2024/01/08 09:54:24;;;;;;;;;;;19.70;46.60;;;;;;5017075;28;19925;-61
2024/01/08 09:56:53;;;;;;;;;;;19.80;46.60;;;;;;5016450;28;20331;-60
2024/01/08 09:59:19;;;;;;;;;;;19.80;46.50;;;;;;5016527;28;19968;-60
2024/01/08 10:01:44;;;;;;;;;;;19.80;46.40;;;;;;5034233;28;20435;-60
2024/01/08 10:04:10;;;;;;;;;;;19.80;46.40;;;;;;5034003;28;19929;-60
2024/01/08 10:06:35;;;;;;;;;;;19.80;46.40;;;;;;4999173;28;19925;-60
2024/01/08 10:09:00;;;;;;;;;;;19.80;46.40;;;;;;5034028;28;19936;-60
2024/01/08 10:11:26;;;;;;;;;;;19.80;47.00;;;;;;5034119;28;19925;-60
2024/01/08 10:13:52;;;;;;;;;;;19.80;46.40;;;;;;5033468;28;20019;-61
2024/01/08 10:16:17;;;;;;;;;;;19.80;46.30;;;;;;5033910;28;19960;-60
2024/01/08 10:18:47;;;;;;;;;;;19.80;46.30;;;;;;5032990;28;19932;-60
2024/01/08 10:21:13;;;;;;;;;;;19.80;46.20;;;;;;5033376;28;19929;-60
2024/01/08 10:23:39;;;;;;;;;;;19.80;46.20;;;;;;5016018;28;19925;-60
2024/01/08 10:26:04;;;;;;;;;;;19.80;46.10;;;;;;5032723;28;20023;-60
2024/01/08 10:28:35;;;;;;;;;;;19.80;46.10;;;;;;5034026;28;20407;-60
2024/01/08 10:31:02;;;;;;;;;;;19.80;46.10;;;;;;5033487;28;19995;-60
2024/01/08 10:33:28;;;;;;;;;;;19.80;46.10;;;;;;5033126;28;19951;-60
2024/01/08 10:35:53;;;;;;;;;;;19.80;46.10;;;;;;5033100;28;20008;-60
2024/01/08 10:38:19;;;;;;;;;;;19.80;46.10;;;;;;5033549;28;19938;-60
2024/01/08 10:40:45;;;;;;;;;;;19.80;46.00;;;;;;5033183;28;20016;-60
2024/01/08 10:43:11;;;;;;;;;;;19.80;46.00;;;;;;5033444;28;20044;-61
2024/01/08 10:45:36;;;;;;;;;;;19.80;45.80;;;;;;5015938;28;19932;-60
2024/01/08 10:48:02;;;;;;;;;;;19.80;45.90;;;;;;5032462;28;19979;-60
2024/01/08 10:50:27;;;;;;;;;;;19.80;45.80;;;;;;5015643;28;19925;-60
2024/01/08 10:52:56;;;;;;;;;;;19.90;45.90;;;;;;5015677;28;19929;-61
2024/01/08 10:55:23;;;;;;;;;;;19.90;45.80;;;;;;5032604;28;19925;-61
2024/01/08 10:57:48;;;;;;;;;;;19.80;45.80;;;;;;5033139;28;19926;-60
2024/01/08 11:00:13;;;;;;;;;;;19.90;45.90;;;;;;5032344;28;19927;-60
2024/01/08 11:02:39;;;;;;;;;;;19.90;45.40;;;;;;5014611;28;19929;-60
2024/01/08 11:05:08;;;;;;;;;;;19.80;45.40;;;;;;5032583;28;20299;-60
2024/01/08 11:07:33;;;;;;;;;;;19.90;45.40;;;;;;5032823;28;19932;-60
2024/01/08 11:10:06;;;;;;;;;;;19.90;45.20;;;;;;5014112;28;19925;-60
2024/01/08 11:12:34;;;;;;;;;;;19.90;45.30;;;;;;5033708;28;19932;-60
2024/01/08 11:15:00;;;;;;;;;;;19.90;45.30;;;;;;5030267;28;19936;-60
2024/01/08 11:17:27;;;;;;;;;;;19.90;45.50;;;;;;5015016;28;19925;-60
2024/01/08 11:19:54;;;;;;;;;;;19.90;45.50;;;;;;5032207;28;19925;-60
2024/01/08 11:22:23;;;;;;;;;;;19.90;45.60;;;;;;5031699;28;19936;-60
2024/01/08 11:24:49;;;;;;;;;;;19.90;45.60;;;;;;5032219;28;19925;-61
2024/01/08 11:27:15;;;;;;;;;;;19.90;45.60;;;;;;5032249;28;19925;-60
2024/01/08 11:29:40;;;;;;;;;;;19.90;45.60;;;;;;5014480;28;19991;-60
2024/01/08 11:32:24;;;;;;;;;;;20.00;45.40;;;;;;5032705;28;19976;-60
2024/01/08 11:34:56;;;;;;;;;;;20.00;45.40;;;;;;5015669;28;19968;-60
2024/01/08 11:37:31;;;;;;;;;;;20.00;45.40;;;;;;5032349;28;19932;-60
2024/01/08 11:40:00;;;;;;;;;;;19.90;45.30;;;;;;5032684;28;20296;-60
2024/01/08 11:42:26;;;;;;;;;;;20.00;45.20;;;;;;5015034;28;19972;-61
2024/01/08 11:44:51;;;;;;;;;;;20.00;45.20;;;;;;5031793;28;19964;-60
2024/01/08 11:47:17;;;;;;;;;;;20.00;45.40;;;;;;5033129;28;19932;-61
2024/01/08 11:49:43;;;;;;;;;;;20.00;45.30;;;;;;5032638;28;19967;-60
2024/01/08 11:52:09;;;;;;;;;;;20.00;45.40;;;;;;5031255;28;19976;-60
2024/01/08 11:54:34;;;;;;;;;;;20.00;45.50;;;;;;5014976;28;19925;-60
2024/01/08 11:57:00;;;;;;;;;;;20.00;45.40;;;;;;5031989;28;19925;-60
2024/01/08 11:59:30;;;;;;;;;;;20.00;45.60;;;;;;5032581;28;19929;-59
2024/01/08 12:02:05;;;;;;;;;;;20.00;45.40;;;;;;5032624;28;19926;-59
2024/01/08 12:04:31;;;;;;;;;;;20.00;45.60;;;;;;5031892;28;20377;-60
2024/01/08 12:06:56;;;;;;;;;;;20.00;45.50;;;;;;5032470;28;19932;-60
2024/01/08 12:09:22;;;;;;;;;;;20.10;45.60;;;;;;5032599;28;20010;-60
2024/01/08 12:11:47;;;;;;;;;;;20.10;45.70;;;;;;5032043;28;19925;-60
2024/01/08 12:14:13;;;;;;;;;;;20.10;45.70;;;;;;5032348;28;19925;-60
2024/01/08 12:16:38;;;;;;;;;;;20.10;45.60;;;;;;5032748;28;20376;-60
2024/01/08 12:19:05;;;;;;;;;;;20.10;45.50;;;;;;5013896;28;19971;-60
2024/01/08 12:21:30;;;;;;;;;;;20.10;45.60;;;;;;5035577;28;19990;-60
2024/01/08 12:23:56;;;;;;;;;;;20.10;45.60;;;;;;5035634;28;20381;-60
2024/01/08 12:26:22;;;;;;;;;;;20.10;45.50;;;;;;5035162;28;19935;-60
2024/01/08 12:28:48;;;;;;;;;;;20.10;45.50;;;;;;5036170;28;19921;-60
2024/01/08 12:31:13;;;;;;;;;;;20.10;45.60;;;;;;5001675;28;20422;-60
2024/01/08 12:33:39;;;;;;;;;;;20.10;45.70;;;;;;5035412;28;19921;-60
2024/01/08 12:36:04;;;;;;;;;;;20.10;45.70;;;;;;5017702;28;20434;-60
2024/01/08 12:38:29;;;;;;;;;;;20.10;45.70;;;;;;5036133;28;19984;-60
2024/01/08 12:40:55;;;;;;;;;;;20.10;45.70;;;;;;5034891;28;20292;-60
2024/01/08 12:43:20;;;;;;;;;;;20.10;45.60;;;;;;5035869;28;20015;-60
2024/01/08 12:45:46;;;;;;;;;;;20.10;45.50;;;;;;5035899;28;19936;-60
2024/01/08 12:48:12;;;;;;;;;;;20.10;45.60;;;;;;5016805;28;20020;-60
2024/01/08 12:50:37;;;;;;;;;;;20.20;45.70;;;;;;5018032;28;19925;-65
2024/01/08 12:53:03;;;;;;;;;;;20.20;45.80;;;;;;5016932;28;20296;-60
2024/01/08 12:55:28;;;;;;;;;;;20.20;45.60;;;;;;5034894;28;19925;-60
2024/01/08 12:57:57;;;;;;;;;;;20.10;45.50;;;;;;5035167;28;19925;-60
2024/01/08 13:00:25;;;;;;;;;;;20.10;45.40;;;;;;5034497;28;19927;-60
2024/01/08 13:02:51;;;;;;;;;;;20.20;45.30;;;;;;5035117;28;19980;-60
2024/01/08 13:05:17;;;;;;;;;;;20.10;45.00;;;;;;5034526;28;19973;-60
2024/01/08 13:07:42;;;;;;;;;;;20.10;44.90;;;;;;5032281;28;20400;-60
2024/01/08 13:10:08;;;;;;;;;;;20.10;44.80;;;;;;5034739;28;19925;-60
2024/01/08 13:12:36;;;;;;;;;;;20.10;44.80;;;;;;5035425;28;19925;-60
2024/01/08 13:15:01;;;;;;;;;;;20.10;44.70;;;;;;5016166;28;19950;-60
2024/01/08 13:17:27;;;;;;;;;;;20.10;44.70;;;;;;5035120;28;19980;-60
2024/01/08 13:19:52;;;;;;;;;;;20.10;44.70;;;;;;5034986;28;19925;-60
2024/01/08 13:22:18;;;;;;;;;;;20.20;44.80;;;;;;5034176;28;20438;-60
2024/01/08 13:24:43;;;;;;;;;;;20.20;44.60;;;;;;5034713;28;19925;-60
2024/01/08 13:27:13;;;;;;;;;;;20.20;45.30;;;;;;5034497;28;20008;-60
2024/01/08 13:29:39;;;;;;;;;;;20.20;44.60;;;;;;5034283;28;19952;-60
2024/01/08 13:32:06;;;;;;;;;;;20.20;44.70;;;;;;5033743;28;19925;-60
2024/01/08 13:34:32;;;;;;;;;;;20.20;44.70;;;;;;5017305;28;19925;-60
2024/01/08 13:36:58;;;;;;;;;;;20.20;44.60;;;;;;5032391;28;19932;-60
2024/01/08 13:39:24;;;;;;;;;;;20.20;44.50;;;;;;5034250;28;19925;-60
2024/01/08 13:41:49;;;;;;;;;;;20.20;44.40;;;;;;5016717;28;20308;-61
2024/01/08 13:44:15;;;;;;;;;;;20.20;44.10;;;;;;5015635;28;19926;-61
2024/01/08 13:46:43;;;;;;;;;;;20.20;44.20;;;;;;5033610;28;20136;-61
2024/01/08 13:49:08;;;;;;;;;;;20.30;44.30;;;;;;5034176;28;20008;-61
2024/01/08 13:51:34;;;;;;;;;;;20.30;44.30;;;;;;5033383;28;20063;-61
2024/01/08 13:53:59;;;;;;;;;;;20.30;44.30;;;;;;5016315;28;19953;-60
2024/01/08 13:56:25;;;;;;;;;;;20.20;44.20;;;;;;5034508;28;19971;-60
2024/01/08 13:58:50;;;;;;;;;;;20.20;42.70;;;;;;5033825;28;20352;-60
2024/01/08 14:01:16;;;;;;;;;;;20.20;43.10;;;;;;5033883;28;19925;-60
2024/01/08 14:03:42;;;;;;;;;;;20.20;43.30;;;;;;5015967;28;20027;-60
2024/01/08 14:06:08;;;;;;;;;;;20.20;43.40;;;;;;5012710;28;19979;-61
2024/01/08 14:08:33;;;;;;;;;;;20.20;43.90;;;;;;5034242;28;20339;-59